Time;durP1;ratioP1;P1;durP2;ratioP2;P2;SDS_P1;SDS_P2;PMS_P1;PMS_P2;Temp;Humidity;BMP_temperature;BMP_pressure;BME280_temperature;BME280_humidity;BME280_pressure;Samples;Min_cycle;Max_cycle;Signal;HPM_P1;HPM_P2
2023/10/22 00:01:34;;;;;;;17.03;16.43;;;12.50;99.90;;;;;;5032529;28;20240;-66
2023/10/22 00:04:00;;;;;;;17.30;16.70;;;12.60;99.90;;;;;;5032797;28;20643;-66
2023/10/22 00:06:27;;;;;;;16.03;15.43;;;12.60;99.90;;;;;;5033455;28;20554;-68
2023/10/22 00:08:54;;;;;;;17.93;17.33;;;12.60;99.90;;;;;;5032866;28;20197;-68
2023/10/22 00:11:20;;;;;;;16.93;16.33;;;12.60;99.90;;;;;;5033171;28;20219;-66
2023/10/22 00:13:48;;;;;;;17.00;16.40;;;12.60;99.90;;;;;;5045855;28;20205;-69
2023/10/22 00:16:15;;;;;;;16.73;16.13;;;12.60;99.90;;;;;;5044006;28;20208;-65
2023/10/22 00:18:42;;;;;;;15.60;15.10;;;12.70;99.90;;;;;;5034901;28;20236;-67
2023/10/22 00:21:08;;;;;;;16.27;15.67;;;12.70;99.90;;;;;;5032344;28;20219;-67
2023/10/22 00:23:35;;;;;;;16.60;16.00;;;12.70;99.90;;;;;;5031272;28;20235;-67
2023/10/22 00:26:01;;;;;;;16.87;16.27;;;12.70;99.90;;;;;;5024707;28;20216;-66
2023/10/22 00:28:28;;;;;;;16.33;15.73;;;12.70;99.90;;;;;;5024291;28;20690;-66
2023/10/22 00:30:56;;;;;;;16.53;15.93;;;12.60;99.90;;;;;;5024617;28;20207;-65
2023/10/22 00:33:23;;;;;;;17.40;16.80;;;12.60;99.90;;;;;;5023565;28;20224;-66
2023/10/22 00:35:55;;;;;;;16.47;15.90;;;12.50;99.90;;;;;;5023692;28;20209;-67
2023/10/22 00:38:22;;;;;;;17.10;16.50;;;12.50;99.90;;;;;;5029045;28;20213;-68
2023/10/22 00:40:49;;;;;;;16.33;15.77;;;12.50;99.90;;;;;;5032408;28;20216;-65
2023/10/22 00:43:16;;;;;;;16.93;16.33;;;12.40;99.90;;;;;;5032567;28;20224;-65
2023/10/22 00:45:43;;;;;;;17.00;16.40;;;12.40;99.90;;;;;;5031658;28;20732;-67
2023/10/22 00:48:12;;;;;;;17.50;16.90;;;12.40;99.90;;;;;;5031037;28;20208;-66
2023/10/22 00:50:40;;;;;;;16.53;15.93;;;12.40;99.90;;;;;;5029900;28;20229;-67
2023/10/22 00:53:07;;;;;;;16.57;15.97;;;12.30;99.90;;;;;;5030223;28;20259;-67
2023/10/22 00:55:37;;;;;;;16.50;15.90;;;12.30;99.90;;;;;;5030736;28;20217;-66
2023/10/22 00:58:05;;;;;;;14.90;14.40;;;12.20;99.90;;;;;;5030734;28;20268;-66
2023/10/22 01:00:33;;;;;;;15.35;14.85;;;12.20;99.90;;;;;;5038335;28;20215;-66
2023/10/22 01:03:01;;;;;;;15.97;15.37;;;12.20;99.90;;;;;;5041508;28;20225;-65
2023/10/22 01:05:30;;;;;;;15.93;15.40;;;12.20;99.90;;;;;;5034741;28;20606;-66
2023/10/22 01:07:57;;;;;;;15.27;14.77;;;12.20;99.90;;;;;;5031675;28;20208;-66
2023/10/22 01:10:24;;;;;;;15.67;15.17;;;12.20;99.90;;;;;;5034378;28;20219;-67
2023/10/22 01:12:51;;;;;;;16.03;15.43;;;12.20;99.90;;;;;;5044703;28;20713;-66
2023/10/22 01:15:17;;;;;;;15.90;15.30;;;12.10;99.90;;;;;;5047622;28;20211;-65
2023/10/22 01:17:44;;;;;;;14.97;14.47;;;12.10;99.90;;;;;;5045012;28;20580;-68
2023/10/22 01:20:13;;;;;;;15.27;14.77;;;12.00;99.90;;;;;;5043518;28;20230;-69
2023/10/22 01:22:41;;;;;;;14.27;13.77;;;12.00;99.90;;;;;;5042489;28;20937;-64
2023/10/22 01:25:10;;;;;;;14.38;13.88;;;12.00;99.90;;;;;;5039164;28;20205;-65
2023/10/22 01:27:37;;;;;;;14.80;14.30;;;12.00;99.90;;;;;;5032106;28;20220;-65
2023/10/22 01:30:05;;;;;;;14.67;14.17;;;12.10;99.90;;;;;;5031693;28;20197;-65
2023/10/22 01:32:33;;;;;;;14.67;14.17;;;12.00;99.90;;;;;;5031445;28;20228;-67
2023/10/22 01:35:00;;;;;;;15.70;15.20;;;12.00;99.90;;;;;;5031747;28;20208;-67
2023/10/22 01:37:27;;;;;;;14.77;14.27;;;12.00;99.90;;;;;;5031639;28;20209;-66
2023/10/22 01:39:54;;;;;;;15.17;14.67;;;12.00;99.90;;;;;;5031137;28;20235;-67
2023/10/22 01:42:22;;;;;;;14.77;14.27;;;11.90;99.90;;;;;;5031091;28;20232;-65
2023/10/22 01:44:49;;;;;;;14.30;13.80;;;11.90;99.90;;;;;;5031158;28;20286;-65
2023/10/22 01:47:15;;;;;;;13.30;12.87;;;11.80;99.90;;;;;;5030462;28;20200;-68
2023/10/22 01:49:43;;;;;;;14.10;13.60;;;11.80;99.90;;;;;;5030914;28;20200;-66
2023/10/22 01:52:10;;;;;;;13.60;13.10;;;11.80;99.90;;;;;;5030824;28;20224;-66
2023/10/22 01:54:38;;;;;;;13.70;13.20;;;11.80;99.90;;;;;;5031446;28;20204;-66
2023/10/22 01:57:05;;;;;;;13.63;13.13;;;11.80;99.90;;;;;;5031250;28;20683;-66
2023/10/22 01:59:33;;;;;;;13.93;13.43;;;11.80;99.90;;;;;;5031168;28;20221;-68
2023/10/22 02:02:00;;;;;;;13.20;12.77;;;11.70;99.90;;;;;;5030247;28;20307;-67
2023/10/22 02:04:30;;;;;;;14.43;13.73;;;11.70;99.90;;;;;;5030890;28;20204;-66
2023/10/22 02:06:56;;;;;;;13.83;13.33;;;11.70;99.90;;;;;;5030905;28;20262;-67
2023/10/22 02:09:23;;;;;;;13.20;12.70;;;11.70;99.90;;;;;;5030787;28;20201;-65
2023/10/22 02:11:50;;;;;;;13.43;12.93;;;11.70;99.90;;;;;;5029172;28;20232;-66
2023/10/22 02:14:17;;;;;;;13.73;13.23;;;11.60;99.90;;;;;;5031064;28;20208;-67
2023/10/22 02:16:45;;;;;;;13.97;13.47;;;11.60;99.90;;;;;;5031112;28;20200;-70
2023/10/22 02:19:11;;;;;;;13.90;13.30;;;11.60;99.90;;;;;;5030775;28;20240;-66
2023/10/22 02:21:38;;;;;;;13.87;13.37;;;11.60;99.90;;;;;;5031212;28;20224;-67
2023/10/22 02:24:05;;;;;;;13.73;13.23;;;11.60;99.90;;;;;;5030934;28;20307;-66
2023/10/22 02:26:32;;;;;;;13.47;12.97;;;11.60;99.90;;;;;;5031337;28;20213;-67
2023/10/22 02:28:59;;;;;;;13.67;13.17;;;11.50;99.90;;;;;;5030613;28;20204;-68
2023/10/22 02:31:25;;;;;;;13.23;12.73;;;11.50;99.90;;;;;;5030469;28;20603;-66
2023/10/22 02:34:03;;;;;;;12.60;12.20;;;11.50;99.90;;;;;;5030551;28;20212;-66
2023/10/22 02:36:29;;;;;;;12.93;12.53;;;11.50;99.90;;;;;;5031014;28;20281;-65
2023/10/22 02:38:56;;;;;;;12.93;12.53;;;11.40;99.90;;;;;;5030578;28;20224;-68
2023/10/22 02:41:23;;;;;;;14.03;13.53;;;11.30;99.90;;;;;;5030641;28;20264;-68
2023/10/22 02:43:50;;;;;;;12.97;12.57;;;11.30;99.90;;;;;;5030430;28;20311;-65
2023/10/22 02:46:17;;;;;;;12.97;12.57;;;11.30;99.90;;;;;;5030660;28;20576;-67
2023/10/22 02:48:43;;;;;;;12.87;12.47;;;11.30;99.90;;;;;;5030895;28;20212;-67
2023/10/22 02:51:11;;;;;;;12.93;12.53;;;11.40;99.90;;;;;;5031616;28;20216;-66
2023/10/22 02:53:38;;;;;;;12.93;12.53;;;11.30;99.90;;;;;;5035066;28;20205;-67
2023/10/22 02:56:07;;;;;;;12.63;12.23;;;11.40;99.90;;;;;;5034802;28;20209;-67
2023/10/22 02:58:34;;;;;;;13.97;13.47;;;11.30;99.90;;;;;;5032815;28;20247;-67
2023/10/22 03:01:04;;;;;;;13.50;13.00;;;11.30;99.90;;;;;;5030488;28;20243;-67
2023/10/22 03:03:31;;;;;;;13.50;13.00;;;11.40;99.90;;;;;;5031013;28;20262;-66
2023/10/22 03:05:59;;;;;;;14.10;13.60;;;11.30;99.90;;;;;;5030946;28;20216;-65
2023/10/22 03:08:27;;;;;;;13.90;13.40;;;11.30;99.90;;;;;;5030751;28;20212;-68
2023/10/22 03:10:54;;;;;;;13.90;13.40;;;11.30;99.90;;;;;;5030338;28;20655;-65
2023/10/22 03:13:20;;;;;;;13.47;12.97;;;11.30;99.90;;;;;;5030371;28;20228;-67
2023/10/22 03:15:47;;;;;;;13.63;13.13;;;11.30;99.90;;;;;;5033186;28;20201;-67
2023/10/22 03:18:14;;;;;;;12.40;12.00;;;11.20;99.90;;;;;;5028831;28;20201;-67
2023/10/22 03:20:42;;;;;;;13.30;12.90;;;11.10;99.90;;;;;;5034418;28;20337;-66
2023/10/22 03:23:09;;;;;;;13.50;13.00;;;11.10;99.90;;;;;;5034235;28;20259;-66
2023/10/22 03:25:39;;;;;;;13.77;13.27;;;11.10;99.90;;;;;;5033785;28;20208;-67
2023/10/22 03:28:06;;;;;;;13.07;12.67;;;11.10;99.90;;;;;;5033683;28;20208;-67
2023/10/22 03:30:33;;;;;;;13.67;13.17;;;11.10;99.90;;;;;;5034207;28;20200;-66
2023/10/22 03:32:59;;;;;;;12.90;12.50;;;11.10;99.90;;;;;;5033967;28;20220;-68
2023/10/22 03:35:27;;;;;;;13.47;12.97;;;11.10;99.90;;;;;;5034242;28;20694;-68
2023/10/22 03:37:53;;;;;;;14.00;13.50;;;11.10;99.90;;;;;;5033610;28;20579;-66
2023/10/22 03:40:20;;;;;;;13.37;12.87;;;11.10;99.90;;;;;;5033260;28;20228;-68
2023/10/22 03:42:48;;;;;;;13.20;12.73;;;11.10;99.90;;;;;;5033181;28;20246;-64
2023/10/22 03:45:15;;;;;;;13.23;12.73;;;11.10;99.90;;;;;;5028044;28;20224;-66
2023/10/22 03:47:41;;;;;;;13.43;12.93;;;11.10;99.90;;;;;;5033555;28;20632;-67
2023/10/22 03:50:09;;;;;;;13.50;13.00;;;11.00;99.90;;;;;;5033452;28;20203;-67
2023/10/22 03:52:36;;;;;;;12.97;12.57;;;11.00;99.90;;;;;;5033372;28;20224;-67
2023/10/22 03:55:04;;;;;;;13.10;12.60;;;11.00;99.90;;;;;;5032816;28;20213;-66
2023/10/22 03:57:31;;;;;;;13.00;12.50;;;11.00;99.90;;;;;;5033246;28;20232;-65
2023/10/22 03:59:59;;;;;;;12.47;12.07;;;11.00;99.90;;;;;;5032971;28;20232;-67
2023/10/22 04:02:26;;;;;;;13.07;12.60;;;11.00;99.90;;;;;;5033237;28;20237;-68
2023/10/22 04:04:54;;;;;;;13.03;12.53;;;11.00;99.90;;;;;;5033439;28;20208;-69
2023/10/22 04:07:20;;;;;;;13.07;12.57;;;11.00;99.90;;;;;;5033206;28;20209;-66
2023/10/22 04:09:47;;;;;;;11.87;11.47;;;11.00;99.90;;;;;;5033155;28;20212;-66
2023/10/22 04:12:14;;;;;;;12.97;12.47;;;11.10;99.90;;;;;;5027918;28;20227;-66
2023/10/22 04:14:40;;;;;;;12.50;12.10;;;11.10;99.90;;;;;;5034078;28;20208;-66
2023/10/22 04:17:08;;;;;;;12.50;12.10;;;11.10;99.90;;;;;;5033353;28;20288;-66
2023/10/22 04:19:35;;;;;;;12.57;12.17;;;11.00;99.90;;;;;;5033060;28;20232;-67
2023/10/22 04:22:02;;;;;;;13.23;12.73;;;11.00;99.90;;;;;;5034274;28;20585;-67
2023/10/22 04:24:28;;;;;;;12.77;12.37;;;11.10;99.90;;;;;;5041106;28;20216;-64
2023/10/22 04:26:55;;;;;;;12.57;12.17;;;11.00;99.90;;;;;;5040444;28;20209;-66
2023/10/22 04:29:22;;;;;;;12.33;11.93;;;11.00;99.90;;;;;;5039157;28;20686;-66
2023/10/22 04:31:49;;;;;;;13.27;12.77;;;11.00;99.90;;;;;;5039402;28;20228;-67
2023/10/22 04:34:18;;;;;;;13.63;12.93;;;11.00;99.90;;;;;;5032396;28;20209;-67
2023/10/22 04:36:44;;;;;;;13.00;12.50;;;11.10;99.90;;;;;;5036020;28;20208;-66
2023/10/22 04:39:11;;;;;;;12.97;12.50;;;11.00;99.90;;;;;;5033226;28;20201;-67
2023/10/22 04:41:38;;;;;;;13.10;12.60;;;11.00;99.90;;;;;;5032658;28;20231;-65
2023/10/22 04:44:05;;;;;;;12.63;12.23;;;11.10;99.90;;;;;;5033124;28;20216;-66
2023/10/22 04:46:32;;;;;;;12.70;12.20;;;11.00;99.90;;;;;;5033148;28;20227;-65
2023/10/22 04:48:59;;;;;;;12.40;11.90;;;11.00;99.90;;;;;;5032428;28;20559;-66
2023/10/22 04:51:27;;;;;;;12.20;11.80;;;11.00;99.90;;;;;;5032395;28;20221;-66
2023/10/22 04:53:53;;;;;;;12.97;12.47;;;11.00;99.90;;;;;;5032456;28;20204;-68
2023/10/22 04:56:20;;;;;;;13.20;12.80;;;11.00;99.90;;;;;;5032580;28;20235;-65
2023/10/22 04:58:47;;;;;;;13.03;12.57;;;10.90;99.90;;;;;;5032305;28;20212;-67
2023/10/22 05:01:14;;;;;;;13.33;12.93;;;10.90;99.90;;;;;;5031531;28;20220;-67
2023/10/22 05:03:40;;;;;;;13.03;12.60;;;10.90;99.90;;;;;;5033655;28;20233;-64
2023/10/22 05:06:07;;;;;;;12.87;12.43;;;10.90;99.90;;;;;;5034188;28;20215;-66
2023/10/22 05:08:36;;;;;;;12.87;12.47;;;10.80;99.90;;;;;;5032474;28;20627;-66
2023/10/22 05:11:05;;;;;;;13.57;13.07;;;10.80;99.90;;;;;;5032497;28;20227;-66
2023/10/22 05:13:32;;;;;;;13.23;12.83;;;10.80;99.90;;;;;;5032094;28;20208;-67
2023/10/22 05:15:59;;;;;;;13.60;13.10;;;10.80;99.90;;;;;;5031830;28;20679;-66
2023/10/22 05:18:26;;;;;;;14.00;13.50;;;10.80;99.90;;;;;;5031718;28;20218;-68
2023/10/22 05:20:53;;;;;;;13.90;13.40;;;10.80;99.90;;;;;;5031271;28;20592;-66
2023/10/22 05:23:22;;;;;;;12.90;12.50;;;10.80;99.90;;;;;;5031249;28;20224;-64
2023/10/22 05:25:50;;;;;;;14.18;13.68;;;10.70;99.90;;;;;;5031599;28;20295;-66
2023/10/22 05:28:17;;;;;;;14.47;13.97;;;10.70;99.90;;;;;;5031462;28;20215;-65
2023/10/22 05:30:43;;;;;;;13.43;12.93;;;10.70;99.90;;;;;;5031300;28;20197;-66
2023/10/22 05:33:10;;;;;;;13.80;13.30;;;10.60;99.90;;;;;;5031663;28;20240;-66
2023/10/22 05:35:37;;;;;;;12.77;12.37;;;10.70;99.90;;;;;;5031353;28;20223;-65
2023/10/22 05:38:04;;;;;;;14.33;13.83;;;10.70;99.90;;;;;;5031140;28;20262;-66
2023/10/22 05:40:36;;;;;;;13.63;13.13;;;10.70;99.90;;;;;;5031245;28;20235;-67
2023/10/22 05:43:04;;;;;;;13.47;12.87;;;10.60;99.90;;;;;;5029940;28;20248;-66
2023/10/22 05:45:32;;;;;;;13.80;13.30;;;10.60;99.90;;;;;;5031206;28;20886;-63
2023/10/22 05:47:58;;;;;;;14.07;13.57;;;10.50;99.90;;;;;;5031119;28;20205;-64
2023/10/22 05:50:25;;;;;;;13.67;13.17;;;10.60;99.90;;;;;;5031226;28;20207;-66
2023/10/22 05:52:52;;;;;;;13.73;13.23;;;10.60;99.90;;;;;;5031635;28;20232;-66
2023/10/22 05:55:19;;;;;;;13.73;13.23;;;10.60;99.90;;;;;;5026414;28;20212;-66
2023/10/22 05:57:46;;;;;;;13.40;12.90;;;10.60;99.90;;;;;;5030998;28;20205;-66
2023/10/22 06:00:15;;;;;;;14.17;13.60;;;10.60;99.90;;;;;;5030551;28;20243;-65
2023/10/22 06:02:42;;;;;;;13.38;12.95;;;10.60;99.90;;;;;;5030594;28;20236;-66
2023/10/22 06:05:09;;;;;;;14.83;14.33;;;10.60;99.90;;;;;;5032744;28;20675;-65
2023/10/22 06:07:36;;;;;;;13.27;12.77;;;10.50;99.90;;;;;;5030931;28;20209;-65
2023/10/22 06:10:03;;;;;;;14.40;13.90;;;10.50;99.90;;;;;;5031526;28;20211;-65
2023/10/22 06:12:30;;;;;;;14.07;13.57;;;10.50;99.90;;;;;;5030892;28;20244;-64
2023/10/22 06:15:03;;;;;;;14.33;13.83;;;10.50;99.90;;;;;;5028887;28;20200;-65
2023/10/22 06:17:31;;;;;;;14.23;13.73;;;10.50;99.90;;;;;;5032208;28;20606;-65
2023/10/22 06:19:58;;;;;;;14.57;14.07;;;10.50;99.90;;;;;;5030075;28;20236;-61
2023/10/22 06:22:24;;;;;;;14.33;13.83;;;10.60;99.90;;;;;;5032033;28;20228;-64
2023/10/22 06:24:51;;;;;;;13.07;12.57;;;10.60;99.90;;;;;;5032072;28;20224;-65
2023/10/22 06:27:18;;;;;;;13.97;13.47;;;10.60;99.90;;;;;;5032348;28;20262;-66
2023/10/22 06:29:48;;;;;;;13.40;12.90;;;10.70;99.90;;;;;;5040914;28;20206;-64
2023/10/22 06:32:14;;;;;;;14.10;13.60;;;10.70;99.90;;;;;;5034340;28;20546;-66
2023/10/22 06:34:43;;;;;;;14.00;13.50;;;10.70;99.90;;;;;;5032016;28;20279;-66
2023/10/22 06:37:09;;;;;;;13.17;12.67;;;10.70;99.90;;;;;;5031340;28;20952;-66
2023/10/22 06:39:36;;;;;;;14.60;14.10;;;10.70;99.90;;;;;;5030982;28;20201;-66
2023/10/22 06:42:03;;;;;;;13.93;13.43;;;10.70;99.90;;;;;;5030523;28;20234;-66
2023/10/22 06:44:30;;;;;;;13.93;13.43;;;10.80;99.90;;;;;;5031208;28;20296;-66
2023/10/22 06:46:57;;;;;;;13.50;13.00;;;10.80;99.90;;;;;;5028300;28;20765;-65
2023/10/22 06:49:23;;;;;;;13.20;12.80;;;10.80;99.90;;;;;;5031808;28;20308;-66
2023/10/22 06:51:51;;;;;;;13.07;12.57;;;10.90;99.90;;;;;;5036634;28;20603;-66
2023/10/22 06:54:18;;;;;;;13.23;12.73;;;10.90;99.90;;;;;;5034856;28;20216;-66
2023/10/22 06:56:45;;;;;;;12.80;12.37;;;10.90;99.90;;;;;;5029176;28;20205;-64
2023/10/22 06:59:11;;;;;;;13.07;12.67;;;11.00;99.90;;;;;;5030215;28;20200;-66
2023/10/22 07:01:38;;;;;;;13.23;12.77;;;11.00;99.90;;;;;;5029930;28;20594;-67
2023/10/22 07:04:05;;;;;;;12.97;12.50;;;11.10;99.90;;;;;;5032310;28;20215;-63
2023/10/22 07:06:32;;;;;;;13.30;12.80;;;11.10;99.90;;;;;;5032598;28;20579;-64
2023/10/22 07:09:00;;;;;;;12.83;12.43;;;11.00;99.90;;;;;;5032187;28;20212;-65
2023/10/22 07:11:27;;;;;;;12.80;12.40;;;11.00;99.90;;;;;;5031916;28;21007;-66
2023/10/22 07:13:53;;;;;;;12.60;12.20;;;11.10;99.90;;;;;;5032085;28;20259;-66
2023/10/22 07:16:20;;;;;;;12.83;12.43;;;11.10;99.90;;;;;;5032179;28;20216;-64
2023/10/22 07:18:47;;;;;;;12.23;11.83;;;11.10;99.90;;;;;;5033006;28;20205;-65
2023/10/22 07:21:14;;;;;;;13.30;12.80;;;11.20;99.90;;;;;;5032344;28;20224;-63
2023/10/22 07:23:40;;;;;;;12.23;11.83;;;11.30;99.90;;;;;;5032756;28;20209;-65
2023/10/22 07:26:08;;;;;;;12.98;12.48;;;11.50;99.90;;;;;;5032166;28;20648;-64
2023/10/22 07:28:41;;;;;;;12.20;11.70;;;11.60;99.90;;;;;;5031969;28;20209;-64
2023/10/22 07:31:07;;;;;;;12.35;11.95;;;11.70;99.90;;;;;;5031901;28;20631;-63
2023/10/22 07:33:34;;;;;;;12.03;11.63;;;11.90;99.90;;;;;;5028536;28;20221;-66
2023/10/22 07:36:03;;;;;;;12.10;11.60;;;12.10;99.90;;;;;;5031382;28;20212;-65
2023/10/22 07:38:32;;;;;;;12.00;11.60;;;12.20;99.90;;;;;;5031576;28;20735;-65
2023/10/22 07:40:58;;;;;;;12.30;11.80;;;12.40;99.90;;;;;;5028829;28;20774;-65
2023/10/22 07:43:28;;;;;;;13.30;12.80;;;12.60;99.90;;;;;;5027240;28;20999;-65
2023/10/22 07:45:59;;;;;;;14.25;13.75;;;12.70;99.90;;;;;;5031365;28;20215;-65
2023/10/22 07:48:26;;;;;;;13.90;13.40;;;12.80;99.90;;;;;;5027246;28;20374;-65
2023/10/22 07:50:53;;;;;;;13.30;12.90;;;13.10;99.90;;;;;;5031503;28;20197;-65
2023/10/22 07:53:19;;;;;;;14.83;14.30;;;13.40;99.90;;;;;;5031300;28;20611;-63
2023/10/22 07:55:46;;;;;;;14.57;14.07;;;13.60;99.90;;;;;;5031997;28;20219;-63
2023/10/22 07:58:13;;;;;;;13.67;13.17;;;13.90;99.90;;;;;;5027359;28;20200;-66
2023/10/22 08:00:42;;;;;;;12.47;12.00;;;14.30;99.90;;;;;;5034277;28;21019;-64
2023/10/22 08:03:09;;;;;;;12.17;11.77;;;14.50;99.90;;;;;;5035618;28;20254;-65
2023/10/22 08:05:36;;;;;;;12.30;11.80;;;14.70;99.90;;;;;;5032830;28;20796;-65
2023/10/22 08:08:02;;;;;;;11.80;11.40;;;14.80;99.90;;;;;;5035130;28;20211;-64
2023/10/22 08:10:29;;;;;;;12.47;12.07;;;15.10;99.90;;;;;;5040071;28;20272;-65
2023/10/22 08:12:56;;;;;;;13.20;12.70;;;15.30;99.90;;;;;;5032589;28;20227;-65
2023/10/22 08:15:22;;;;;;;13.07;12.57;;;15.50;99.90;;;;;;5031374;28;20284;-64
2023/10/22 08:17:51;;;;;;;14.57;14.07;;;15.60;99.90;;;;;;5031804;28;20284;-65
2023/10/22 08:20:17;;;;;;;13.17;12.67;;;15.70;99.90;;;;;;5031626;28;20578;-65
2023/10/22 08:22:44;;;;;;;13.57;13.07;;;15.90;99.90;;;;;;5031077;28;20718;-63
2023/10/22 08:25:11;;;;;;;13.73;13.23;;;16.00;99.90;;;;;;5029725;28;20288;-65
2023/10/22 08:27:38;;;;;;;13.63;13.13;;;16.00;99.90;;;;;;5031658;28;20665;-65
2023/10/22 08:30:06;;;;;;;13.63;13.13;;;16.20;99.90;;;;;;5032725;28;20205;-64
2023/10/22 08:32:34;;;;;;;13.67;13.17;;;16.30;99.90;;;;;;5032821;28;20220;-65
2023/10/22 08:35:03;;;;;;;12.47;11.97;;;16.50;99.90;;;;;;5032570;28;20224;-64
2023/10/22 08:37:30;;;;;;;12.47;12.07;;;16.50;99.90;;;;;;5029212;28;20200;-65
2023/10/22 08:39:57;;;;;;;11.80;11.40;;;16.60;99.90;;;;;;5030068;28;20208;-65
2023/10/22 08:42:25;;;;;;;12.37;11.97;;;16.70;99.90;;;;;;5033013;28;20234;-64
2023/10/22 08:44:52;;;;;;;11.90;11.50;;;16.90;99.90;;;;;;5034357;28;20299;-65
2023/10/22 08:47:18;;;;;;;12.37;11.93;;;17.10;99.90;;;;;;5034376;28;20212;-64
2023/10/22 08:49:48;;;;;;;13.13;12.70;;;17.10;99.90;;;;;;5034174;28;20221;-64
2023/10/22 08:52:16;;;;;;;12.63;12.18;;;17.20;99.90;;;;;;5034125;28;20216;-64
2023/10/22 08:54:45;;;;;;;15.70;15.10;;;17.20;99.90;;;;;;5034502;28;20522;-63
2023/10/22 08:57:12;;;;;;;13.20;12.70;;;17.30;99.90;;;;;;5033413;28;20201;-64
2023/10/22 08:59:40;;;;;;;13.52;13.02;;;17.40;99.90;;;;;;5033348;28;20288;-64
2023/10/22 09:02:09;;;;;;;12.97;12.57;;;17.40;99.90;;;;;;5027317;28;20235;-64
2023/10/22 09:04:36;;;;;;;13.15;12.65;;;17.50;99.90;;;;;;5030673;28;20209;-65
2023/10/22 09:07:03;;;;;;;12.80;12.30;;;17.50;99.90;;;;;;5030665;28;20204;-64
2023/10/22 09:09:36;;;;;;;12.83;12.43;;;17.60;99.90;;;;;;5032588;28;20217;-63
2023/10/22 09:12:04;;;;;;;12.88;12.38;;;17.70;99.90;;;;;;5032483;28;20220;-66
2023/10/22 09:14:31;;;;;;;12.90;12.40;;;17.80;99.90;;;;;;5032759;28;20204;-65
2023/10/22 09:16:59;;;;;;;12.50;12.10;;;18.00;99.90;;;;;;5031924;28;20200;-66
2023/10/22 09:19:36;;;;;;;12.57;12.17;;;18.10;99.90;;;;;;5030250;28;20660;-65
2023/10/22 09:22:04;;;;;;;13.53;13.03;;;18.30;99.90;;;;;;5041842;28;20696;-66
2023/10/22 09:24:34;;;;;;;13.10;12.67;;;18.40;99.90;;;;;;5029116;28;20227;-66
2023/10/22 09:27:01;;;;;;;12.67;12.17;;;18.60;99.90;;;;;;5036710;28;20270;-66
2023/10/22 09:29:31;;;;;;;12.38;11.98;;;18.40;99.90;;;;;;5045338;28;20219;-66
2023/10/22 09:31:59;;;;;;;12.57;12.15;;;18.30;99.90;;;;;;5037855;28;20311;-65
2023/10/22 09:34:26;;;;;;;12.50;12.10;;;18.30;99.90;;;;;;5035367;28;20200;-66
2023/10/22 09:36:53;;;;;;;12.73;12.23;;;18.30;99.90;;;;;;5032134;28;20200;-66
2023/10/22 09:39:34;;;;;;;12.30;11.90;;;18.30;99.90;;;;;;5031164;28;20209;-64
2023/10/22 09:42:03;;;;;;;12.80;12.30;;;18.50;99.90;;;;;;5028727;28;20236;-64
2023/10/22 09:44:30;;;;;;;12.80;12.30;;;18.40;99.90;;;;;;5027085;28;20239;-64
2023/10/22 09:47:01;;;;;;;11.77;11.38;;;18.40;99.90;;;;;;5028230;28;20196;-65
2023/10/22 09:49:29;;;;;;;12.70;12.20;;;18.50;99.90;;;;;;5031418;28;20210;-63
2023/10/22 09:51:59;;;;;;;13.07;12.57;;;18.40;99.90;;;;;;5031373;28;20310;-64
2023/10/22 09:54:34;;;;;;;12.80;12.30;;;18.40;99.90;;;;;;5031462;28;20208;-66
2023/10/22 09:57:07;;;;;;;12.83;12.33;;;18.40;99.90;;;;;;5029681;28;20207;-64
2023/10/22 09:59:35;;;;;;;12.80;12.40;;;18.30;99.90;;;;;;5030854;28;20205;-65
2023/10/22 10:02:02;;;;;;;12.90;12.40;;;18.20;99.90;;;;;;5030814;28;20255;-65
2023/10/22 10:04:32;;;;;;;12.97;12.47;;;18.10;99.90;;;;;;5031569;28;20226;-65
2023/10/22 10:07:01;;;;;;;12.30;11.90;;;17.90;99.90;;;;;;5032888;28;20201;-64
2023/10/22 10:09:29;;;;;;;12.40;12.00;;;17.80;99.90;;;;;;5035055;28;20213;-65
2023/10/22 10:11:57;;;;;;;12.50;12.10;;;17.70;99.90;;;;;;5031373;28;20230;-65
2023/10/22 10:14:43;;;;;;;12.13;11.70;;;17.70;99.90;;;;;;5031093;28;20579;-64
2023/10/22 10:17:10;;;;;;;12.30;11.90;;;17.90;99.90;;;;;;5025591;28;20200;-64
2023/10/22 10:19:38;;;;;;;12.30;11.90;;;18.00;99.90;;;;;;5025441;28;20208;-65
2023/10/22 10:22:05;;;;;;;12.57;12.13;;;18.20;99.90;;;;;;5030789;28;20282;-66
2023/10/22 10:24:33;;;;;;;12.23;11.83;;;18.30;99.90;;;;;;5035127;28;20228;-66
2023/10/22 10:27:25;;;;;;;12.80;12.30;;;18.40;99.90;;;;;;5038154;28;20551;-64
2023/10/22 10:30:20;;;;;;;12.40;12.00;;;18.50;99.90;;;;;;5036245;28;20669;-64
2023/10/22 10:32:49;;;;;;;13.10;12.60;;;18.50;99.90;;;;;;5039579;28;20227;-68
2023/10/22 10:35:16;;;;;;;13.60;13.10;;;18.70;99.90;;;;;;5048334;28;20205;-67
2023/10/22 10:38:22;;;;;;;14.40;13.80;;;18.80;99.90;;;;;;5052090;28;20196;-66
2023/10/22 10:40:50;;;;;;;13.70;13.20;;;18.80;99.90;;;;;;5042971;28;20238;-66
2023/10/22 10:43:18;;;;;;;14.07;13.57;;;19.00;99.90;;;;;;5053089;28;20252;-65
2023/10/22 10:46:22;;;;;;;14.17;13.67;;;19.00;99.90;;;;;;5053917;28;20224;-66
2023/10/22 10:48:52;;;;;;;14.43;13.93;;;19.10;99.90;;;;;;5042675;28;20219;-67
2023/10/22 10:51:19;;;;;;;14.30;13.70;;;19.10;99.90;;;;;;5037944;28;20200;-67
2023/10/22 10:54:14;;;;;;;14.57;14.07;;;19.10;99.90;;;;;;5037656;28;20200;-66
2023/10/22 10:57:02;;;;;;;13.90;13.40;;;19.10;99.90;;;;;;5038164;28;20200;-65
2023/10/22 10:59:30;;;;;;;13.83;13.33;;;19.10;99.90;;;;;;5034046;28;20220;-66
2023/10/22 11:02:06;;;;;;;14.30;13.80;;;19.00;99.90;;;;;;5034996;28;20224;-67
2023/10/22 11:04:36;;;;;;;13.93;13.43;;;18.90;99.90;;;;;;5037983;28;20200;-67
2023/10/22 11:07:03;;;;;;;13.97;13.47;;;18.90;99.90;;;;;;5039175;28;20205;-68
2023/10/22 11:09:33;;;;;;;14.07;13.57;;;19.10;99.90;;;;;;5038129;28;20215;-65
2023/10/22 11:12:03;;;;;;;14.20;13.70;;;19.10;99.90;;;;;;5035253;28;20743;-66
2023/10/22 11:14:30;;;;;;;13.93;13.43;;;19.00;99.90;;;;;;5036159;28;20204;-67
2023/10/22 11:16:57;;;;;;;14.10;13.60;;;19.00;99.90;;;;;;5037258;28;20211;-66
2023/10/22 11:19:25;;;;;;;14.57;14.07;;;19.00;99.90;;;;;;5037735;28;20208;-66
2023/10/22 11:21:54;;;;;;;14.27;13.77;;;19.20;99.90;;;;;;5035178;28;20247;-66
2023/10/22 11:24:24;;;;;;;14.50;14.00;;;19.20;99.90;;;;;;5041418;28;20659;-66
2023/10/22 11:26:51;;;;;;;15.30;14.70;;;19.10;99.90;;;;;;5038286;28;20212;-67
2023/10/22 11:29:19;;;;;;;14.60;14.10;;;19.00;99.90;;;;;;5036364;28;20288;-65
2023/10/22 11:31:57;;;;;;;14.20;13.70;;;19.00;99.90;;;;;;5035980;28;20374;-64
2023/10/22 11:34:26;;;;;;;14.83;14.33;;;19.00;99.90;;;;;;5035887;28;20223;-64
2023/10/22 11:37:00;;;;;;;14.83;14.23;;;19.00;99.90;;;;;;5032966;28;20288;-64
2023/10/22 11:39:34;;;;;;;14.60;14.10;;;18.90;99.90;;;;;;5032817;28;20207;-66
2023/10/22 11:42:03;;;;;;;15.15;14.55;;;18.80;99.90;;;;;;5032030;28;20294;-65
2023/10/22 11:44:32;;;;;;;14.07;13.57;;;18.80;99.90;;;;;;5034576;28;20209;-65
2023/10/22 11:47:02;;;;;;;14.67;14.07;;;18.60;99.90;;;;;;5033320;28;20200;-65
2023/10/22 11:49:30;;;;;;;13.57;13.07;;;18.50;99.90;;;;;;5034296;28;20216;-66
2023/10/22 11:51:56;;;;;;;13.35;12.88;;;18.60;99.90;;;;;;5033102;28;20600;-65
2023/10/22 11:54:44;;;;;;;13.50;13.00;;;18.80;99.90;;;;;;5033382;28;20217;-64
2023/10/22 11:57:10;;;;;;;13.30;12.80;;;18.90;99.90;;;;;;5032531;28;20201;-64
2023/10/22 11:59:37;;;;;;;13.27;12.77;;;18.90;99.90;;;;;;5032932;28;20577;-67
2023/10/22 12:02:04;;;;;;;13.63;13.13;;;18.90;99.90;;;;;;5031348;28;20224;-67
2023/10/22 12:04:31;;;;;;;13.60;13.10;;;18.90;99.90;;;;;;5033797;28;20217;-65
2023/10/22 12:06:58;;;;;;;13.43;12.93;;;19.00;99.90;;;;;;5031153;28;20200;-65
2023/10/22 12:09:24;;;;;;;13.97;13.47;;;18.90;99.90;;;;;;5033194;28;20573;-66
2023/10/22 12:11:53;;;;;;;14.03;13.53;;;18.90;99.90;;;;;;5033101;28;20259;-65
2023/10/22 12:14:20;;;;;;;13.97;13.47;;;19.00;99.90;;;;;;5030684;28;20339;-64
2023/10/22 12:16:46;;;;;;;13.83;13.23;;;19.00;99.90;;;;;;5035038;28;20216;-66
2023/10/22 12:19:13;;;;;;;13.60;13.10;;;18.90;99.90;;;;;;5034317;28;20617;-63
2023/10/22 12:21:40;;;;;;;13.10;12.70;;;18.90;99.90;;;;;;5033247;28;20236;-64
2023/10/22 12:24:07;;;;;;;13.50;13.00;;;18.90;99.90;;;;;;5033421;28;20205;-65
2023/10/22 12:26:34;;;;;;;13.57;13.07;;;18.90;99.90;;;;;;5033097;28;20203;-65
2023/10/22 12:29:02;;;;;;;13.20;12.80;;;18.90;99.90;;;;;;5032523;28;20205;-66
2023/10/22 12:31:29;;;;;;;13.73;13.23;;;18.90;99.90;;;;;;5032585;28;20959;-66
2023/10/22 12:33:55;;;;;;;13.43;12.93;;;18.90;99.90;;;;;;5032605;28;20344;-64